Tunuyan, Argentina
Current Conditions -  °F | °C
As of 5:00 AM on Friday 21 Nov 2014 (Local Time) from SAME Reporting Station
Scattered Clouds Scattered Clouds  
Wind Chill: 57°   Ceiling: Unl
Heat Index: 57°   Visibility: 6mi
Dew Point: 46°   Wind: 2mph
Humidity: 67%   Direction: 110°ESE
Pressure: 30.06"   Gusts: NA
Location:  33.57°S, 69.02°W
Report Text: SAME 210800Z 11002KT 9999 FEW040 SCT04514/08 Q1018
Loading
Personal Weather Stations






























Interactive Weather Map New forecast layout! Learn more

10-Day Weather Forecast

Advertisements
Track Severe Weather on mobile